Flight Track Log - Related Links

Times and Time Zones

All times are in EDT time to prevent confusion due to time zone crossing. See the SWA230 flight status page for this flight to view local times or setup timezone preferences in your user account.

Time Position Orientation Groundspeed Altitude Reporting Facility
EDT Latitude Longitude Course Direction KTS MPH feet Rate Location/Type
Wed 02:24:58 PM 41.8000 -87.7333 156° South 136 157 1,600  Level Chicago TRACON
Wed 02:26:23 PM 41.7336 -87.6931 156° South 205 236 4,600 2,571 Climbing Chicago Center
Wed 02:27:25 PM 41.6617 -87.6994 184° South 238 274 7,900 3,408 Climbing Chicago Center
Wed 02:28:28 PM 41.5789 -87.7092 185° South 283 326 11,700 3,143 Climbing Chicago Center
Wed 02:29:31 PM 41.4878 -87.7178 184° South 317 365 14,500 3,097 Climbing Chicago Center
Wed 02:30:32 PM 41.3861 -87.7258 183° South 353 406 18,100 3,561 Climbing Chicago Center
Wed 02:31:34 PM 41.2822 -87.7261 180° South 366 421 21,800 2,371 Climbing Chicago Center
Wed 02:32:36 PM 41.1797 -87.7253 180° South 368 423 23,000 581 Climbing Chicago Center
Wed 02:33:38 PM 41.0572 -87.7050 173° South 369 425 23,000  Level Chicago Center
Wed 02:34:40 PM 40.9539 -87.6908 174° South 371 427 23,000  Level Chicago Center
Wed 02:35:42 PM 40.8492 -87.6783 175° South 377 434 23,000  Level Chicago Center
Wed 02:36:44 PM 40.7444 -87.6628 174° South 378 435 23,000  Level Chicago Center
Wed 02:37:46 PM 40.6397 -87.6489 174° South 380 437 23,000  Level Chicago Center
Wed 02:38:49 PM 40.5117 -87.6319 174° South 384 442 23,000  Level Chicago Center
Wed 02:39:51 PM 40.4050 -87.6172 174° South 387 445 23,000  Level Chicago Center
Wed 02:40:53 PM 40.3000 -87.6044 175° South 382 440 23,000  Level Chicago Center
Wed 02:41:55 PM 40.1944 -87.6128 183° South 380 437 23,000  Level Chicago Center
Wed 02:42:53 PM 40.0892 -87.5817 167° South 393 452 23,000  Level Indianapolis Center
Wed 02:43:55 PM 39.9972 -87.5078 148° Southeast 392 451 23,000  Level Indianapolis Center
Wed 02:44:57 PM 39.9100 -87.4206 142° Southeast 395 455 23,000  Level Indianapolis Center
Wed 02:45:59 PM 39.8222 -87.3375 144° Southeast 394 453 23,000  Level Indianapolis Center
Wed 02:47:01 PM 39.7175 -87.2378 144° Southeast 391 450 23,000  Level Indianapolis Center
Wed 02:48:03 PM 39.6297 -87.1547 144° Southeast 391 450 23,000  Level Indianapolis Center
Wed 02:49:05 PM 39.5414 -87.0719 144° Southeast 393 452 23,000 -97 Level Indianapolis Center
Wed 02:50:07 PM 39.4539 -86.9894 144° Southeast 394 453 22,800 -532 Descending Indianapolis Center
Wed 02:51:09 PM 39.3672 -86.9081 144° Southeast 390 449 21,900 -1,016 Descending Indianapolis Center
Wed 02:52:11 PM 39.2658 -86.8119 144° Southeast 381 438 20,700 -1,065 Descending Indianapolis Center
Wed 02:53:13 PM 39.1822 -86.7342 144° Southeast 376 433 19,700 -823 Descending Indianapolis Center
Wed 02:54:15 PM 39.1047 -86.6625 144° Southeast 369 425 19,000 -484 Descending Indianapolis Center
Wed 02:55:17 PM 39.0200 -86.5831 144° Southeast 360 414 18,700 -1,258 Descending Indianapolis Center
Wed 02:56:19 PM 38.9386 -86.5089 145° Southeast 362 417 16,400 -2,226 Descending Indianapolis Center
Wed 02:57:21 PM 38.8442 -86.4219 144° Southeast 355 409 14,100 -1,645 Descending Indianapolis Center
Wed 02:58:23 PM 38.7700 -86.3531 144° Southeast 340 391 13,000 -1,056 Descending Indianapolis Center
Wed 02:59:26 PM 38.6981 -86.2869 144° Southeast 327 376 11,900 -1,008 Descending Indianapolis Center
Wed 03:00:28 PM 38.6228 -86.2272 148° Southeast 319 367 10,900 -1,065 Descending Indianapolis Center
Wed 03:01:30 PM 38.5506 -86.1683 147° Southeast 310 357 9,700 -1,355 Descending Indianapolis Center
Wed 03:02:32 PM 38.4808 -86.1131 148° Southeast 299 344 8,100 -1,403 Descending Indianapolis Center
Wed 03:03:34 PM 38.4139 -86.0586 147° Southeast 288 331 6,800 -1,016 Descending Indianapolis Center
Wed 03:04:36 PM 38.3361 -85.9969 148° Southeast 276 318 6,000 -387 Descending Indianapolis Center
Wed 03:05:38 PM 38.2725 -85.9458 148° Southeast 271 312 6,000  Level Indianapolis Center
Wed 03:06:40 PM 38.2086 -85.8936 147° Southeast 271 312 6,000 -484 Level Indianapolis Center
Wed 03:07:42 PM 38.1433 -85.8431 149° Southeast 271 312 5,000 -1,016 Descending Indianapolis Center
Wed 03:08:44 PM 38.0825 -85.7967 149° Southeast 266 306 3,900 -1,065 Descending Indianapolis Center
Wed 03:09:46 PM 38.0328 -85.7556 147° Southeast 236 272 2,800 -883 Descending Indianapolis Center
Wed 03:11:27 PM 38.1000 -85.7167 24° Northeast 149 171 1,500 -772 Descending Louisville TRACON

Login

Don't have an account? Register now (free) for customized features, flight alerts, and more!